Albertslund, Denmark
Current Conditions -  °F | °C
As of 2:20 AM on Tuesday 21 Oct 2014 (Local Time) from EKRK Reporting Station
Few Clouds Few Clouds  
Wind Chill: 48°   Ceiling: Unl
Heat Index: 48°   Visibility: 3mi
Dew Point: 48°   Wind: 3mph
Humidity: 100%   Direction: 260°W
Pressure: 29.71"   Gusts: NA
Location:  55.66°N, 12.36°E
Report Text: EKRK 210020Z AUTO 26003KT 5000NDV FEW007/// 09/09 Q1006
Loading
Personal Weather Stations






























Interactive Weather Map
Tropical Storm Tracking
New forecast layout! Learn more

10-Day Weather Forecast

Advertisements
Track Severe Weather on mobile